Time;durP1;ratioP1;P1;durP2;ratioP2;P2;SDS_P1;SDS_P2;PMS_P1;PMS_P2;Temp;Humidity;BMP_temperature;BMP_pressure;BME280_temperature;BME280_humidity;BME280_pressure;Samples;Min_cycle;Max_cycle;Signal;HPM_P1;HPM_P2
2022/07/22 00:01:52;;;;;;;7.28;4.00;;;26.20;76.20;;;;;;5050927;28;20040;-72
2022/07/22 00:04:56;;;;;;;8.77;4.85;;;26.20;76.90;;;;;;5050497;28;20044;-72
2022/07/22 00:08:00;;;;;;;8.88;4.80;;;26.20;78.00;;;;;;5050976;28;20040;-72
2022/07/22 00:11:04;;;;;;;8.00;4.50;;;26.10;78.90;;;;;;5051227;28;20043;-72
2022/07/22 00:14:08;;;;;;;9.25;4.40;;;26.10;79.10;;;;;;5049516;28;20498;-73
2022/07/22 00:17:12;;;;;;;10.02;4.32;;;26.10;78.90;;;;;;5038836;28;20490;-73
2022/07/22 00:20:16;;;;;;;6.72;4.15;;;26.10;79.00;;;;;;5051149;28;20056;-71
2022/07/22 00:23:20;;;;;;;7.55;4.78;;;26.00;78.70;;;;;;5050508;28;20055;-72
2022/07/22 00:26:23;;;;;;;4.60;3.83;;;26.00;78.50;;;;;;5050996;28;20052;-72
2022/07/22 00:29:27;;;;;;;6.47;4.15;;;25.90;78.00;;;;;;5050853;28;20399;-72
2022/07/22 00:32:31;;;;;;;6.97;4.20;;;25.90;78.10;;;;;;5038592;28;20044;-71
2022/07/22 00:35:36;;;;;;;7.15;4.65;;;25.90;78.30;;;;;;5037949;28;20044;-72
2022/07/22 00:38:40;;;;;;;8.55;4.82;;;25.80;79.00;;;;;;5050679;28;20052;-72
2022/07/22 00:41:44;;;;;;;8.38;4.47;;;25.70;79.70;;;;;;5038106;28;20044;-72
2022/07/22 00:44:49;;;;;;;12.02;4.93;;;25.70;80.30;;;;;;5049889;28;20420;-72
2022/07/22 00:47:53;;;;;;;6.50;4.85;;;25.60;80.80;;;;;;5050487;28;20430;-71
2022/07/22 00:50:57;;;;;;;7.72;4.70;;;25.60;81.50;;;;;;5050612;28;20060;-72
2022/07/22 00:54:03;;;;;;;9.25;4.60;;;25.60;81.50;;;;;;5050000;28;20048;-71
2022/07/22 00:57:07;;;;;;;9.32;4.53;;;25.50;80.90;;;;;;5050494;28;20457;-71
2022/07/22 01:00:15;;;;;;;7.70;4.88;;;25.60;80.10;;;;;;5037966;28;20503;-72
2022/07/22 01:03:19;;;;;;;6.40;4.38;;;25.50;79.80;;;;;;5048484;28;20065;-73
2022/07/22 01:06:24;;;;;;;9.13;4.40;;;25.50;80.10;;;;;;5050192;28;20056;-72
2022/07/22 01:09:28;;;;;;;11.30;4.68;;;25.50;80.50;;;;;;5050160;28;20052;-72
2022/07/22 01:12:33;;;;;;;10.27;4.40;;;25.40;80.70;;;;;;5038299;28;20044;-72
2022/07/22 01:15:37;;;;;;;10.23;4.72;;;25.40;80.40;;;;;;5050174;28;20044;-72
2022/07/22 01:18:41;;;;;;;8.32;4.38;;;25.30;79.70;;;;;;5037828;28;20044;-72
2022/07/22 01:21:46;;;;;;;8.63;4.80;;;25.30;79.90;;;;;;5049341;28;20637;-72
2022/07/22 01:24:50;;;;;;;5.65;4.60;;;25.30;80.40;;;;;;5049689;28;20044;-72
2022/07/22 01:27:55;;;;;;;7.60;4.80;;;25.20;80.90;;;;;;5038047;28;20052;-72
2022/07/22 01:30:59;;;;;;;7.10;4.70;;;25.20;81.10;;;;;;5050456;28;20044;-72
2022/07/22 01:34:05;;;;;;;8.52;4.38;;;25.20;80.90;;;;;;5049189;28;20491;-72
2022/07/22 01:37:13;;;;;;;10.70;4.47;;;25.20;80.60;;;;;;5031000;28;20407;-72
2022/07/22 01:40:17;;;;;;;8.73;4.40;;;25.20;80.30;;;;;;5050076;28;20063;-73
2022/07/22 01:43:21;;;;;;;5.55;4.22;;;25.10;80.00;;;;;;5036410;28;20503;-72
2022/07/22 01:46:26;;;;;;;7.85;4.28;;;25.00;79.40;;;;;;5037688;28;20055;-72
2022/07/22 01:49:31;;;;;;;5.63;3.47;;;24.90;79.30;;;;;;5037662;28;20040;-72
2022/07/22 01:52:36;;;;;;;4.80;4.22;;;24.90;79.00;;;;;;5037668;28;20403;-72
2022/07/22 01:55:40;;;;;;;7.75;4.38;;;24.80;79.10;;;;;;5037307;28;20065;-72
2022/07/22 01:58:44;;;;;;;7.80;4.00;;;24.60;79.30;;;;;;5037681;28;20052;-72
2022/07/22 02:01:50;;;;;;;3.75;2.90;;;24.50;76.20;;;;;;5037489;28;20044;-72
2022/07/22 02:04:54;;;;;;;5.10;3.47;;;24.40;72.60;;;;;;5036962;28;20040;-72
2022/07/22 02:08:04;;;;;;;7.35;3.90;;;24.30;73.60;;;;;;5049587;28;20472;-72
2022/07/22 02:11:22;;;;;;;8.10;4.03;;;24.00;73.40;;;;;;5037586;28;20048;-72
2022/07/22 02:14:32;;;;;;;5.95;4.53;;;23.90;76.20;;;;;;5040105;28;20060;-72
2022/07/22 02:17:36;;;;;;;5.72;4.57;;;23.80;79.30;;;;;;5041118;28;20055;-72
2022/07/22 02:20:42;;;;;;;8.07;5.18;;;23.70;81.90;;;;;;5040799;28;20048;-72
2022/07/22 02:23:45;;;;;;;7.85;5.57;;;23.60;80.90;;;;;;5052925;28;20058;-72
2022/07/22 02:26:49;;;;;;;8.38;5.00;;;23.50;84.10;;;;;;5040809;28;20048;-72
2022/07/22 02:29:54;;;;;;;5.88;4.68;;;23.40;85.30;;;;;;5040639;28;20428;-72
2022/07/22 02:32:58;;;;;;;6.78;4.95;;;23.30;84.60;;;;;;5052939;28;20064;-72
2022/07/22 02:36:02;;;;;;;8.38;4.70;;;23.20;86.90;;;;;;5052955;28;20051;-72
2022/07/22 02:39:07;;;;;;;10.82;5.90;;;23.20;86.30;;;;;;5040671;28;20387;-72
2022/07/22 02:42:12;;;;;;;6.57;5.30;;;23.10;87.20;;;;;;5040731;28;20043;-72
2022/07/22 02:45:16;;;;;;;6.05;5.15;;;23.10;87.20;;;;;;5039800;28;20064;-72
2022/07/22 02:48:21;;;;;;;7.88;5.43;;;23.10;87.70;;;;;;5041214;28;20047;-72
2022/07/22 02:51:26;;;;;;;10.90;5.18;;;23.10;88.20;;;;;;5040424;28;20052;-72
2022/07/22 02:54:29;;;;;;;6.88;5.15;;;22.90;88.50;;;;;;5052140;28;20055;-71
2022/07/22 02:57:34;;;;;;;12.52;5.53;;;22.90;88.80;;;;;;5039958;28;20506;-72
2022/07/22 03:00:38;;;;;;;7.18;6.00;;;22.90;89.00;;;;;;5051679;28;20052;-71
2022/07/22 03:03:42;;;;;;;12.98;6.30;;;22.90;89.10;;;;;;5051155;28;20044;-72
2022/07/22 03:06:46;;;;;;;7.32;5.38;;;22.90;89.00;;;;;;5052255;28;20044;-71
2022/07/22 03:09:55;;;;;;;9.77;5.43;;;22.90;89.00;;;;;;5040132;28;20487;-72
2022/07/22 03:12:58;;;;;;;10.15;5.03;;;22.80;88.60;;;;;;5051516;28;20506;-71
2022/07/22 03:16:03;;;;;;;7.10;5.30;;;22.80;87.80;;;;;;5052085;28;20040;-71
2022/07/22 03:19:07;;;;;;;8.60;5.78;;;22.80;87.20;;;;;;5051561;28;20044;-72
2022/07/22 03:22:12;;;;;;;11.82;5.50;;;22.90;86.70;;;;;;5032785;28;20047;-72
2022/07/22 03:25:16;;;;;;;6.70;5.60;;;22.90;86.30;;;;;;5050730;28;20064;-72
2022/07/22 03:28:21;;;;;;;10.25;5.82;;;22.80;85.80;;;;;;5051300;28;20044;-71
2022/07/22 03:31:25;;;;;;;9.02;5.35;;;22.80;85.70;;;;;;5052062;28;20044;-72
2022/07/22 03:34:30;;;;;;;8.57;5.50;;;22.80;85.70;;;;;;5051454;28;20051;-72
2022/07/22 03:37:42;;;;;;;;;;;22.70;85.70;;;;;;5039672;28;20495;-72
2022/07/22 03:40:46;;;;;;;10.75;5.20;;;22.60;85.90;;;;;;5039722;28;19924;-71
2022/07/22 03:43:50;;;;;;;10.55;5.95;;;22.60;86.20;;;;;;5039020;28;20048;-72
2022/07/22 03:46:55;;;;;;;9.65;5.85;;;22.50;86.60;;;;;;5039324;28;20064;-72
2022/07/22 03:50:01;;;;;;;11.35;5.32;;;22.40;87.10;;;;;;5038800;28;20064;-72
2022/07/22 03:53:06;;;;;;;7.55;5.00;;;22.30;87.50;;;;;;5050619;28;20593;-72
2022/07/22 03:56:14;;;;;;;15.07;5.80;;;22.20;88.30;;;;;;5032398;28;20501;-72
2022/07/22 03:59:19;;;;;;;11.02;6.30;;;22.10;89.40;;;;;;5039237;28;20044;-72
2022/07/22 04:02:24;;;;;;;16.88;7.00;;;22.10;91.00;;;;;;5047005;28;20124;-72
2022/07/22 04:05:28;;;;;;;8.80;5.45;;;22.10;90.90;;;;;;5027177;28;20048;-71
2022/07/22 04:08:32;;;;;;;11.98;6.28;;;22.00;90.90;;;;;;5038859;28;20044;-72
2022/07/22 04:11:36;;;;;;;13.93;6.28;;;22.10;91.10;;;;;;5039344;28;20040;-72
2022/07/22 04:14:40;;;;;;;11.27;6.45;;;22.10;91.50;;;;;;5038560;28;20056;-72
2022/07/22 04:17:45;;;;;;;14.35;6.07;;;22.10;91.50;;;;;;5038946;28;20048;-72
2022/07/22 04:20:50;;;;;;;9.23;6.10;;;22.10;91.70;;;;;;5038860;28;20047;-72
2022/07/22 04:24:33;;;;;;;9.20;6.25;;;22.10;92.00;;;;;;5037329;28;20411;-72
2022/07/22 04:27:37;;;;;;;10.15;6.70;;;22.00;92.40;;;;;;5038580;28;20080;-71
2022/07/22 04:30:41;;;;;;;11.15;6.15;;;22.00;93.10;;;;;;5050346;28;20048;-72
2022/07/22 04:33:45;;;;;;;11.63;6.28;;;22.10;93.50;;;;;;5050429;28;20048;-72
2022/07/22 04:36:49;;;;;;;8.80;5.60;;;22.20;93.30;;;;;;5051094;28;20083;-72
2022/07/22 04:39:54;;;;;;;14.07;6.53;;;22.30;93.30;;;;;;5049825;28;20048;-72
2022/07/22 04:42:59;;;;;;;12.43;5.97;;;22.40;93.20;;;;;;5049949;28;20051;-72
2022/07/22 04:46:05;;;;;;;15.77;7.10;;;22.50;93.20;;;;;;5034875;28;20442;-72
2022/07/22 04:49:11;;;;;;;18.50;6.22;;;23.10;93.00;;;;;;5049788;28;20048;-72
2022/07/22 04:52:15;;;;;;;28.52;7.30;;;25.30;90.80;;;;;;5050380;28;20052;-72
2022/07/22 04:55:25;;;;;;;12.75;6.15;;;27.40;86.30;;;;;;5050058;28;20044;-72
2022/07/22 04:58:29;;;;;;;15.02;6.50;;;29.10;81.20;;;;;;5046057;28;20048;-72
2022/07/22 05:01:33;;;;;;;11.13;6.75;;;30.20;78.50;;;;;;5038006;28;20056;-72
2022/07/22 05:04:40;;;;;;;20.92;8.35;;;31.00;75.70;;;;;;5037293;28;20376;-72
2022/07/22 05:07:44;;;;;;;9.25;6.03;;;31.50;74.90;;;;;;5049120;28;20048;-72
2022/07/22 05:10:49;;;;;;;16.30;6.13;;;32.20;73.90;;;;;;5037761;28;20044;-72
2022/07/22 05:13:53;;;;;;;11.85;5.85;;;32.50;73.30;;;;;;5048931;28;20052;-73
2022/07/22 05:16:57;;;;;;;10.73;6.07;;;33.00;72.20;;;;;;5037616;28;20055;-72
2022/07/22 05:20:04;;;;;;;11.90;6.03;;;33.10;71.90;;;;;;5034152;28;20056;-72
2022/07/22 05:23:09;;;;;;;12.10;5.97;;;33.00;72.10;;;;;;5038354;28;20052;-72
2022/07/22 05:26:15;;;;;;;10.73;6.47;;;33.70;71.50;;;;;;5049903;28;20051;-72
2022/07/22 05:29:19;;;;;;;13.65;7.88;;;33.90;71.30;;;;;;5027381;28;20047;-72
2022/07/22 05:32:23;;;;;;;9.85;6.85;;;34.30;70.90;;;;;;5051215;28;20039;-72
2022/07/22 05:35:33;;;;;;;10.57;6.25;;;34.60;69.90;;;;;;5038170;28;20498;-72
2022/07/22 05:38:37;;;;;;;8.95;5.97;;;34.90;69.30;;;;;;5038395;28;20047;-72
2022/07/22 05:41:42;;;;;;;12.50;5.95;;;34.60;69.50;;;;;;5038231;28;20095;-72
2022/07/22 05:44:46;;;;;;;8.77;5.25;;;34.20;70.00;;;;;;5037089;28;20060;-72
2022/07/22 05:47:51;;;;;;;11.43;5.20;;;34.10;69.70;;;;;;5038341;28;20063;-72
2022/07/22 05:50:55;;;;;;;9.35;5.53;;;34.40;69.00;;;;;;5041570;28;20060;-72
2022/07/22 05:54:02;;;;;;;9.90;5.65;;;34.60;68.10;;;;;;5052388;28;20048;-72
2022/07/22 05:57:09;;;;;;;9.80;4.93;;;34.60;67.70;;;;;;5040928;28;20056;-72
2022/07/22 06:00:15;;;;;;;11.93;6.40;;;35.00;67.00;;;;;;5053316;28;20051;-72
2022/07/22 06:03:20;;;;;;;7.55;4.80;;;34.40;67.90;;;;;;5041474;28;20051;-72
2022/07/22 06:06:23;;;;;;;6.47;5.10;;;34.80;68.10;;;;;;5053383;28;20040;-72
2022/07/22 06:09:28;;;;;;;9.75;4.70;;;35.20;66.70;;;;;;5041331;28;20499;-72
2022/07/22 06:12:32;;;;;;;9.73;5.35;;;35.00;66.80;;;;;;5041393;28;20047;-72
2022/07/22 06:15:36;;;;;;;9.88;4.65;;;35.10;66.50;;;;;;5051676;28;20404;-72
2022/07/22 06:18:41;;;;;;;12.95;4.85;;;35.40;65.90;;;;;;5040822;28;20495;-72
2022/07/22 06:21:45;;;;;;;10.02;5.10;;;35.30;65.90;;;;;;5051165;28;20047;-72
2022/07/22 06:24:51;;;;;;;6.20;4.78;;;34.40;66.20;;;;;;5049360;28;20043;-73
2022/07/22 06:27:55;;;;;;;10.23;4.97;;;34.40;66.00;;;;;;5041264;28;20060;-72
2022/07/22 06:31:00;;;;;;;6.25;4.22;;;35.00;65.10;;;;;;5046065;28;20052;-73
2022/07/22 06:34:05;;;;;;;9.00;4.63;;;35.70;63.80;;;;;;5060832;28;20048;-72
2022/07/22 06:37:22;;;;;;;7.75;4.40;;;36.00;63.40;;;;;;5059972;28;20048;-72
2022/07/22 06:40:26;;;;;;;12.82;4.32;;;36.60;62.60;;;;;;5062179;28;20051;-72
2022/07/22 06:43:38;;;;;;;4.85;3.45;;;37.10;61.60;;;;;;5073012;28;20048;-72
2022/07/22 06:47:02;;;;;;;14.10;4.10;;;37.50;60.40;;;;;;5062274;28;20054;-72
2022/07/22 06:50:08;;;;;;;11.27;3.88;;;37.40;60.20;;;;;;5063817;28;20056;-73
2022/07/22 06:53:12;;;;;;;8.52;3.72;;;37.70;59.50;;;;;;5066896;28;20047;-73
2022/07/22 06:56:18;;;;;;;6.70;3.97;;;37.40;60.00;;;;;;5068558;28;20047;-73
2022/07/22 06:59:22;;;;;;;6.95;3.80;;;36.80;60.90;;;;;;5074776;28;20039;-72
2022/07/22 07:02:26;;;;;;;7.05;4.13;;;35.30;62.50;;;;;;5069141;28;20044;-73
2022/07/22 07:05:30;;;;;;;12.88;4.45;;;35.20;62.90;;;;;;5055781;28;21738;-72
2022/07/22 07:08:35;;;;;;;6.88;4.55;;;35.40;63.20;;;;;;5069362;28;20055;-73
2022/07/22 07:11:40;;;;;;;6.00;3.47;;;35.60;62.10;;;;;;5061909;28;20111;-72
2022/07/22 07:14:52;;;;;;;4.63;3.58;;;36.20;60.70;;;;;;5051145;28;20115;-73
2022/07/22 07:17:56;;;;;;;5.30;3.70;;;36.70;59.80;;;;;;5073922;28;20370;-72
2022/07/22 07:21:04;;;;;;;7.00;4.00;;;37.00;60.20;;;;;;5056012;28;20040;-73
2022/07/22 07:24:09;;;;;;;7.72;3.70;;;38.00;59.80;;;;;;5066377;28;20047;-73
2022/07/22 07:27:13;;;;;;;17.20;3.85;;;37.90;59.60;;;;;;5075594;28;20497;-73
2022/07/22 07:30:18;;;;;;;8.82;4.85;;;36.60;60.40;;;;;;5058074;28;20526;-72
2022/07/22 07:33:22;;;;;;;6.80;3.72;;;37.00;60.30;;;;;;5044462;28;20075;-72
2022/07/22 07:36:29;;;;;;;6.80;4.18;;;37.20;60.60;;;;;;5059448;28;20046;-72
2022/07/22 07:39:33;;;;;;;5.22;3.17;;;38.10;60.10;;;;;;5059982;28;20375;-72
2022/07/22 07:42:38;;;;;;;5.35;3.55;;;39.20;59.00;;;;;;5059132;28;20387;-73
2022/07/22 07:45:43;;;;;;;9.35;3.30;;;39.00;58.70;;;;;;5059668;28;20050;-73
2022/07/22 07:48:48;;;;;;;4.93;3.42;;;40.60;57.60;;;;;;5057732;28;20052;-73
2022/07/22 07:51:53;;;;;;;6.05;3.50;;;41.10;56.90;;;;;;5051216;28;20055;-73
2022/07/22 07:54:58;;;;;;;5.80;3.50;;;41.50;56.40;;;;;;5042087;28;20387;-72
2022/07/22 07:58:03;;;;;;;8.60;3.28;;;42.50;55.80;;;;;;5068116;28;20533;-72
2022/07/22 08:01:07;;;;;;;5.35;3.70;;;43.30;55.00;;;;;;5055635;28;20048;-73
2022/07/22 08:04:13;;;;;;;7.57;3.30;;;43.40;54.70;;;;;;5060418;28;20047;-73
2022/07/22 08:07:18;;;;;;;8.65;3.38;;;43.60;54.30;;;;;;5052184;28;20226;-73
2022/07/22 08:10:23;;;;;;;8.18;3.55;;;43.90;54.30;;;;;;5034823;28;20048;-72
2022/07/22 08:13:46;;;;;;;3.92;3.22;;;44.60;54.10;;;;;;5043399;28;21314;-73
2022/07/22 08:17:18;;;;;;;4.93;3.83;;;45.10;53.40;;;;;;5061465;28;20390;-73
2022/07/22 08:20:24;;;;;;;6.47;3.90;;;44.80;53.90;;;;;;5053192;28;20043;-73
2022/07/22 08:23:29;;;;;;;10.10;4.63;;;44.80;53.50;;;;;;5060821;28;20059;-73
2022/07/22 08:26:33;;;;;;;6.85;3.75;;;45.50;54.20;;;;;;5051717;28;20043;-73
2022/07/22 08:29:38;;;;;;;7.18;4.28;;;45.70;53.90;;;;;;5050146;28;20039;-73
2022/07/22 08:32:43;;;;;;;11.13;4.45;;;45.40;55.00;;;;;;5046484;28;20043;-73
2022/07/22 08:35:47;;;;;;;8.57;4.07;;;46.10;53.60;;;;;;5052041;28;20056;-72
2022/07/22 08:38:52;;;;;;;8.60;4.30;;;46.70;53.50;;;;;;5052412;28;20055;-73
2022/07/22 08:41:58;;;;;;;7.10;3.90;;;47.20;52.50;;;;;;5052204;28;20055;-73
2022/07/22 08:45:03;;;;;;;8.60;3.78;;;47.60;52.30;;;;;;5048034;28;20039;-72
2022/07/22 08:48:08;;;;;;;6.88;4.00;;;48.40;51.60;;;;;;5049620;28;20051;-72
2022/07/22 08:51:21;;;;;;;6.03;4.10;;;49.10;50.60;;;;;;5064156;28;20032;-72
2022/07/22 08:54:36;;;;;;;4.57;3.70;;;49.70;50.30;;;;;;5046578;28;20047;-73
2022/07/22 08:57:46;;;;;;;5.53;3.88;;;49.80;48.80;;;;;;5046485;28;20144;-73
2022/07/22 09:01:05;;;;;;;8.55;3.40;;;50.00;49.40;;;;;;5051453;28;20059;-72
2022/07/22 09:04:09;;;;;;;6.57;3.70;;;50.00;49.10;;;;;;5035345;28;20063;-72
2022/07/22 09:07:27;;;;;;;9.90;3.65;;;49.60;49.70;;;;;;5049650;28;20043;-71
2022/07/22 09:10:33;;;;;;;6.00;3.10;;;50.50;48.90;;;;;;5053401;28;20060;-72
2022/07/22 09:14:00;;;;;;;6.47;3.25;;;51.40;48.10;;;;;;5060733;28;20064;-72
2022/07/22 09:17:28;;;;;;;5.40;3.25;;;51.50;48.00;;;;;;5055930;28;20059;-73
2022/07/22 09:20:59;;;;;;;5.97;3.30;;;51.70;48.30;;;;;;5052173;28;20055;-73
2022/07/22 09:24:09;;;;;;;3.72;2.78;;;52.40;47.70;;;;;;5048256;28;20374;-72
2022/07/22 09:27:23;;;;;;;5.10;3.75;;;52.90;46.80;;;;;;5048655;28;20048;-74
2022/07/22 09:30:50;;;;;;;13.52;3.58;;;53.10;46.90;;;;;;5062116;28;20043;-73
2022/07/22 09:33:54;;;;;;;9.07;3.03;;;53.90;46.80;;;;;;5046259;28;20087;-73
2022/07/22 09:37:01;;;;;;;7.93;3.33;;;54.30;46.80;;;;;;5046654;28;20064;-72
2022/07/22 09:40:18;;;;;;;3.72;3.05;;;53.90;46.80;;;;;;5051927;28;20040;-72
2022/07/22 09:43:22;;;;;;;5.22;2.90;;;53.70;46.80;;;;;;5048961;28;20051;-72
2022/07/22 09:46:37;;;;;;;7.93;3.63;;;54.30;46.80;;;;;;5046165;28;20623;-72
2022/07/22 09:50:25;;;;;;;6.30;3.35;;;54.50;46.70;;;;;;5057970;28;20057;-72
2022/07/22 09:53:49;;;;;;;10.65;3.65;;;54.80;46.40;;;;;;5061265;28;20393;-73
2022/07/22 09:56:59;;;;;;;7.03;3.42;;;54.30;46.40;;;;;;5050088;28;20063;-72
2022/07/22 10:00:06;;;;;;;7.72;3.72;;;54.00;46.70;;;;;;5050344;28;20055;-72
2022/07/22 10:03:30;;;;;;;7.82;4.30;;;50.70;46.50;;;;;;5061355;28;20044;-72
2022/07/22 10:06:38;;;;;;;7.00;4.18;;;50.20;48.40;;;;;;5049015;28;20047;-72
2022/07/22 10:09:45;;;;;;;;;;;47.80;48.20;;;;;;5061092;28;20051;-72
2022/07/22 10:12:52;;;;;;;8.82;4.28;;;49.30;49.10;;;;;;5051640;28;21235;-72
2022/07/22 10:15:57;;;;;;;5.50;3.67;;;49.00;49.30;;;;;;5063385;28;20048;-72
2022/07/22 10:19:02;;;;;;;6.45;3.53;;;51.00;48.00;;;;;;5051473;28;20048;-72
2022/07/22 10:22:38;;;;;;;5.78;3.60;;;52.60;47.50;;;;;;5062479;28;20075;-72
2022/07/22 10:25:54;;;;;;;9.23;3.53;;;53.50;47.00;;;;;;5049493;28;20042;-73
2022/07/22 10:29:28;;;;;;;7.40;3.70;;;54.20;46.60;;;;;;5062458;28;20040;-72
2022/07/22 10:32:33;;;;;;;12.30;3.40;;;54.50;46.80;;;;;;5063208;28;20051;-72
2022/07/22 10:35:58;;;;;;;5.20;3.10;;;55.50;46.20;;;;;;5063106;28;20043;-72
2022/07/22 10:39:13;;;;;;;9.20;3.55;;;56.20;45.60;;;;;;5054025;28;20044;-72
2022/07/22 10:42:17;;;;;;;8.55;3.50;;;55.50;45.60;;;;;;5065673;28;20490;-72
2022/07/22 10:45:24;;;;;;;10.10;4.20;;;55.70;45.60;;;;;;5065997;28;20059;-72
2022/07/22 10:48:37;;;;;;;11.70;3.63;;;55.60;45.90;;;;;;5064884;28;20604;-72
2022/07/22 10:52:25;;;;;;;11.23;3.70;;;55.70;45.60;;;;;;5063931;28;20478;-72
2022/07/22 10:55:29;;;;;;;6.38;3.25;;;55.30;45.20;;;;;;5065842;28;20047;-73
2022/07/22 10:58:34;;;;;;;6.97;3.60;;;55.60;45.60;;;;;;5063652;28;20043;-73
2022/07/22 11:01:42;;;;;;;8.90;3.92;;;55.60;45.40;;;;;;5064565;28;20044;-73
2022/07/22 11:04:47;;;;;;;6.85;3.80;;;53.00;45.50;;;;;;5063445;28;20041;-73
2022/07/22 11:07:51;;;;;;;6.43;4.07;;;53.10;46.70;;;;;;5061832;28;20119;-73
2022/07/22 11:10:55;;;;;;;10.38;3.80;;;52.50;46.70;;;;;;5066147;28;20060;-73
2022/07/22 11:14:00;;;;;;;6.38;3.97;;;52.60;46.60;;;;;;5062685;28;20055;-73
2022/07/22 11:17:13;;;;;;;9.10;4.72;;;51.10;46.90;;;;;;5062584;28;20102;-72
2022/07/22 11:20:18;;;;;;;9.80;4.80;;;51.50;47.40;;;;;;5060512;28;20406;-73
2022/07/22 11:23:25;;;;;;;10.02;5.03;;;50.90;48.10;;;;;;5064369;28;20051;-72
2022/07/22 11:26:38;;;;;;;8.45;4.40;;;50.00;48.30;;;;;;5059625;28;20044;-73
2022/07/22 11:29:45;;;;;;;9.55;5.05;;;50.20;47.40;;;;;;5061517;28;20036;-72
2022/07/22 11:32:50;;;;;;;10.15;4.43;;;49.70;47.50;;;;;;5060487;28;20043;-72
2022/07/22 11:36:22;;;;;;;10.85;4.80;;;50.00;48.60;;;;;;5062630;28;20584;-73
2022/07/22 11:39:29;;;;;;;8.70;4.95;;;49.60;49.40;;;;;;5064634;28;20060;-72
2022/07/22 11:42:33;;;;;;;15.23;6.00;;;50.30;49.20;;;;;;5051716;28;20047;-72
2022/07/22 11:45:55;;;;;;;10.98;5.05;;;49.30;49.40;;;;;;5063876;28;20391;-73
2022/07/22 11:49:00;;;;;;;10.60;5.28;;;50.00;49.30;;;;;;5050964;28;20048;-73
2022/07/22 11:52:11;;;;;;;12.73;5.60;;;49.80;48.90;;;;;;5064739;28;20043;-72
2022/07/22 11:55:19;;;;;;;10.10;5.45;;;49.40;49.40;;;;;;5060294;28;20498;-72
2022/07/22 11:58:37;;;;;;;8.77;4.88;;;49.30;49.50;;;;;;5062334;28;20040;-72
2022/07/22 12:01:41;;;;;;;18.83;6.28;;;49.90;49.80;;;;;;5063676;28;20044;-73
2022/07/22 12:04:47;;;;;;;7.95;5.60;;;50.40;48.40;;;;;;5060069;28;20071;-72
2022/07/22 12:07:51;;;;;;;9.77;4.88;;;50.60;48.50;;;;;;5060190;28;20060;-72
2022/07/22 12:10:57;;;;;;;9.93;5.15;;;50.70;48.40;;;;;;5062658;28;20056;-72
2022/07/22 12:14:24;;;;;;;8.77;5.50;;;50.20;48.50;;;;;;5062132;28;20510;-72
2022/07/22 12:17:28;;;;;;;8.90;5.43;;;50.10;48.70;;;;;;5060425;28;20707;-72
2022/07/22 12:20:32;;;;;;;10.15;5.13;;;50.20;48.40;;;;;;5064140;28;20549;-73
2022/07/22 12:23:36;;;;;;;8.63;6.00;;;49.60;48.70;;;;;;5061741;28;20047;-71
2022/07/22 12:26:47;;;;;;;12.77;5.85;;;48.80;49.20;;;;;;5048677;28;20051;-71
2022/07/22 12:29:53;;;;;;;14.25;6.07;;;48.70;49.50;;;;;;5062184;28;20039;-72
2022/07/22 12:32:59;;;;;;;8.93;5.65;;;48.70;49.40;;;;;;5062259;28;20102;-71
2022/07/22 12:36:06;;;;;;;11.07;6.47;;;48.20;49.80;;;;;;5060756;28;20055;-71
2022/07/22 12:39:20;;;;;;;12.25;6.10;;;48.30;50.00;;;;;;5061609;28;20059;-71
2022/07/22 12:42:31;;;;;;;15.75;6.03;;;48.20;49.90;;;;;;5062304;28;20538;-71
2022/07/22 12:45:38;;;;;;;16.05;7.13;;;47.80;50.10;;;;;;5063048;28;20786;-72
2022/07/22 12:48:50;;;;;;;11.65;6.30;;;47.70;50.20;;;;;;5062042;28;20106;-72
2022/07/22 12:52:13;;;;;;;11.57;6.25;;;46.70;50.70;;;;;;5059669;28;20039;-71
2022/07/22 12:55:18;;;;;;;12.02;5.90;;;46.20;51.50;;;;;;5059631;28;20035;-71
2022/07/22 12:58:36;;;;;;;11.13;5.78;;;45.80;50.70;;;;;;5060194;28;20043;-72
2022/07/22 13:01:40;;;;;;;10.57;6.43;;;45.30;51.50;;;;;;5058026;28;20047;-72
2022/07/22 13:04:44;;;;;;;8.63;6.50;;;45.10;51.00;;;;;;5053973;28;20059;-71
2022/07/22 13:07:49;;;;;;;12.52;6.53;;;45.10;51.40;;;;;;5056314;28;20373;-71
2022/07/22 13:10:54;;;;;;;12.05;6.10;;;44.80;51.50;;;;;;5058001;28;20509;-73
2022/07/22 13:13:59;;;;;;;10.70;6.05;;;45.00;51.80;;;;;;5057865;28;20048;-72
2022/07/22 13:17:04;;;;;;;12.57;6.00;;;45.30;51.30;;;;;;5047493;28;20242;-72
2022/07/22 13:20:09;;;;;;;13.23;6.20;;;45.00;51.00;;;;;;5058876;28;20278;-72
2022/07/22 13:23:14;;;;;;;15.00;5.72;;;44.60;51.10;;;;;;5059072;28;20065;-73
2022/07/22 13:26:18;;;;;;;10.23;6.55;;;44.60;51.40;;;;;;5054571;28;21161;-73
2022/07/22 13:29:23;;;;;;;16.95;7.78;;;43.90;51.70;;;;;;5049927;28;20043;-73
2022/07/22 13:32:29;;;;;;;8.50;6.10;;;44.30;51.90;;;;;;5062496;28;20048;-73
2022/07/22 13:35:35;;;;;;;15.60;6.00;;;44.40;51.70;;;;;;5061345;28;20059;-72
2022/07/22 13:38:39;;;;;;;11.18;6.13;;;44.30;52.10;;;;;;5057050;28;20040;-73
2022/07/22 13:41:43;;;;;;;16.65;6.10;;;44.30;52.20;;;;;;5060903;28;20482;-73
2022/07/22 13:44:51;;;;;;;8.25;5.53;;;44.30;51.60;;;;;;5059273;28;20047;-72
2022/07/22 13:47:55;;;;;;;14.07;5.80;;;44.10;52.40;;;;;;5052397;28;20047;-72
2022/07/22 13:50:58;;;;;;;11.65;6.55;;;43.40;52.50;;;;;;5061621;28;20047;-71
2022/07/22 13:54:03;;;;;;;14.10;6.78;;;42.90;52.40;;;;;;5075966;28;20059;-71
2022/07/22 13:57:07;;;;;;;15.60;6.65;;;43.00;52.20;;;;;;5065638;28;20040;-71
2022/07/22 14:00:11;;;;;;;13.07;6.57;;;42.70;53.50;;;;;;5065725;28;20123;-70
2022/07/22 14:03:15;;;;;;;13.48;7.03;;;42.70;54.40;;;;;;5063684;28;20051;-71
2022/07/22 14:06:19;;;;;;;13.52;6.80;;;42.30;54.70;;;;;;5045045;28;20052;-70
2022/07/22 14:09:23;;;;;;;12.73;7.45;;;42.30;54.90;;;;;;5071266;28;20063;-71
2022/07/22 14:12:28;;;;;;;15.10;7.05;;;42.40;54.90;;;;;;5061814;28;20042;-73
2022/07/22 14:15:33;;;;;;;11.27;6.47;;;42.30;54.70;;;;;;5065718;28;20043;-72
2022/07/22 14:18:37;;;;;;;14.02;6.60;;;42.50;54.30;;;;;;5067909;28;20493;-72
2022/07/22 14:21:44;;;;;;;11.30;6.18;;;42.70;53.80;;;;;;5070176;28;20047;-73
2022/07/22 14:24:48;;;;;;;10.00;5.93;;;42.70;53.60;;;;;;5068725;28;20051;-70
2022/07/22 14:27:52;;;;;;;11.00;6.43;;;42.60;53.80;;;;;;5058820;28;20039;-73
2022/07/22 14:30:57;;;;;;;12.95;7.03;;;42.20;54.00;;;;;;5061615;28;20043;-71
2022/07/22 14:34:01;;;;;;;12.93;5.93;;;42.00;54.50;;;;;;5067826;28;20047;-72
2022/07/22 14:37:05;;;;;;;13.55;5.97;;;41.90;54.90;;;;;;5068605;28;20035;-72
2022/07/22 14:40:10;;;;;;;12.40;6.53;;;41.90;54.10;;;;;;5064443;28;20043;-72
2022/07/22 14:43:14;;;;;;;17.98;6.32;;;41.30;53.80;;;;;;5066007;28;20055;-72
2022/07/22 14:46:19;;;;;;;16.15;5.85;;;40.60;54.70;;;;;;5063778;28;20040;-72
2022/07/22 14:49:23;;;;;;;11.70;6.05;;;40.60;55.00;;;;;;5064162;28;20549;-72
2022/07/22 14:52:27;;;;;;;16.00;6.28;;;40.70;54.70;;;;;;5046886;28;20027;-72
2022/07/22 14:55:31;;;;;;;15.50;6.70;;;40.80;54.70;;;;;;5063439;28;20044;-71
2022/07/22 14:58:35;;;;;;;8.73;5.72;;;40.80;54.60;;;;;;5056001;28;20497;-72
2022/07/22 15:01:39;;;;;;;13.18;6.40;;;40.90;54.90;;;;;;5059577;28;20032;-72
2022/07/22 15:04:43;;;;;;;13.00;5.97;;;41.00;54.70;;;;;;5063469;28;20059;-73
2022/07/22 15:07:47;;;;;;;9.30;5.82;;;40.60;55.30;;;;;;5070505;28;20048;-71
2022/07/22 15:10:51;;;;;;;10.75;6.00;;;40.40;54.90;;;;;;5068652;28;20043;-71
2022/07/22 15:13:55;;;;;;;8.68;5.72;;;39.90;56.00;;;;;;5070770;28;20502;-71
2022/07/22 15:16:59;;;;;;;12.80;5.72;;;40.20;55.50;;;;;;5052315;28;20048;-72
2022/07/22 15:20:06;;;;;;;7.07;5.05;;;39.90;55.30;;;;;;5069965;28;20047;-71
2022/07/22 15:23:10;;;;;;;10.85;6.28;;;39.80;55.10;;;;;;5070261;28;20486;-71
2022/07/22 15:26:15;;;;;;;9.88;5.80;;;39.80;54.80;;;;;;5059242;28;20211;-73
2022/07/22 15:29:19;;;;;;;9.13;5.88;;;39.90;55.20;;;;;;5066709;28;20055;-71
2022/07/22 15:32:23;;;;;;;14.35;5.90;;;39.70;55.00;;;;;;5068863;28;20056;-71
2022/07/22 15:35:27;;;;;;;13.20;5.70;;;39.80;55.00;;;;;;5069884;28;20048;-72
2022/07/22 15:38:31;;;;;;;7.68;5.40;;;39.60;54.90;;;;;;5057605;28;20114;-73
2022/07/22 15:41:35;;;;;;;9.77;5.95;;;39.60;54.40;;;;;;5073160;28;20130;-73
2022/07/22 15:44:39;;;;;;;8.75;5.40;;;39.50;54.50;;;;;;5071688;28;20055;-72
2022/07/22 15:47:43;;;;;;;20.70;6.43;;;39.50;54.60;;;;;;5072023;28;20056;-70
2022/07/22 15:50:47;;;;;;;23.98;6.13;;;39.30;55.00;;;;;;5072132;28;20043;-73
2022/07/22 15:53:51;;;;;;;18.55;5.88;;;39.10;54.20;;;;;;5072101;28;20386;-72
2022/07/22 15:59:30;;;;;;;10.43;5.80;;;38.90;54.70;;;;;;5071865;28;20115;-72
2022/07/22 16:00:20;;;;;;;14.57;6.05;;;38.70;54.90;;;;;;5071754;28;20048;-72
2022/07/22 16:03:25;;;;;;;9.25;5.72;;;38.60;54.80;;;;;;5071297;28;20055;-72
2022/07/22 16:06:29;;;;;;;12.45;6.28;;;38.50;54.70;;;;;;5071571;28;20035;-72
2022/07/22 16:09:33;;;;;;;12.68;6.15;;;38.40;55.10;;;;;;5071769;28;20040;-72